sensor_id;sensor_type;location;lat;lon;timestamp;pressure;altitude;pressure_sealevel;temperature;humidity
61805;BME280;47725;47.912;7.356;2023-04-30T00:01:10;99469.51;;;14.92;57.84
61805;BME280;47725;47.912;7.356;2023-04-30T00:05:10;99466.89;;;14.89;57.91
61805;BME280;47725;47.912;7.356;2023-04-30T00:09:10;99464.62;;;14.87;58.05
61805;BME280;47725;47.912;7.356;2023-04-30T00:13:10;99464.25;;;14.84;58.17
61805;BME280;47725;47.912;7.356;2023-04-30T00:17:10;99464.43;;;14.82;57.99
61805;BME280;47725;47.912;7.356;2023-04-30T00:21:10;99464.09;;;14.80;58.45
61805;BME280;47725;47.912;7.356;2023-04-30T00:25:10;99463.46;;;14.78;58.25
61805;BME280;47725;47.912;7.356;2023-04-30T00:29:10;99461.63;;;14.75;58.55
61805;BME280;47725;47.912;7.356;2023-04-30T00:33:10;99458.17;;;14.73;58.62
61805;BME280;47725;47.912;7.356;2023-04-30T00:37:10;99453.88;;;14.71;58.99
61805;BME280;47725;47.912;7.356;2023-04-30T00:41:10;99449.25;;;14.68;59.25
61805;BME280;47725;47.912;7.356;2023-04-30T00:45:10;99445.92;;;14.65;59.48
61805;BME280;47725;47.912;7.356;2023-04-30T00:49:10;99442.77;;;14.63;59.44
61805;BME280;47725;47.912;7.356;2023-04-30T00:53:11;99439.25;;;14.60;59.70
61805;BME280;47725;47.912;7.356;2023-04-30T00:57:11;99435.58;;;14.58;59.73
61805;BME280;47725;47.912;7.356;2023-04-30T01:01:10;99432.51;;;14.56;59.75
61805;BME280;47725;47.912;7.356;2023-04-30T01:05:10;99428.97;;;14.55;59.50
61805;BME280;47725;47.912;7.356;2023-04-30T01:09:10;99425.89;;;14.53;59.74
61805;BME280;47725;47.912;7.356;2023-04-30T01:13:25;99424.07;;;14.51;60.64
61805;BME280;47725;47.912;7.356;2023-04-30T01:17:21;99421.95;;;14.49;59.87
61805;BME280;47725;47.912;7.356;2023-04-30T01:21:10;99418.77;;;14.48;60.02
61805;BME280;47725;47.912;7.356;2023-04-30T01:29:11;99416.40;;;14.45;59.99
61805;BME280;47725;47.912;7.356;2023-04-30T01:33:11;99416.02;;;14.43;60.22
61805;BME280;47725;47.912;7.356;2023-04-30T01:41:23;99417.16;;;14.41;60.28
61805;BME280;47725;47.912;7.356;2023-04-30T01:53:12;99415.50;;;14.40;60.50
61805;BME280;47725;47.912;7.356;2023-04-30T01:57:31;99414.62;;;14.38;60.61
61805;BME280;47725;47.912;7.356;2023-04-30T02:01:26;99413.10;;;14.37;60.55
61805;BME280;47725;47.912;7.356;2023-04-30T02:05:10;99411.35;;;14.36;60.63
61805;BME280;47725;47.912;7.356;2023-04-30T02:09:10;99410.24;;;14.33;61.08
61805;BME280;47725;47.912;7.356;2023-04-30T02:13:10;99409.53;;;14.30;61.14
61805;BME280;47725;47.912;7.356;2023-04-30T02:17:10;99407.56;;;14.27;61.28
61805;BME280;47725;47.912;7.356;2023-04-30T02:21:10;99405.11;;;14.24;61.65
61805;BME280;47725;47.912;7.356;2023-04-30T02:25:10;99403.94;;;14.21;61.56
61805;BME280;47725;47.912;7.356;2023-04-30T02:29:10;99402.40;;;14.19;61.82
61805;BME280;47725;47.912;7.356;2023-04-30T02:33:10;99401.46;;;14.18;61.43
61805;BME280;47725;47.912;7.356;2023-04-30T02:37:10;99400.72;;;14.17;61.63
61805;BME280;47725;47.912;7.356;2023-04-30T02:41:10;99400.53;;;14.15;61.61
61805;BME280;47725;47.912;7.356;2023-04-30T02:45:10;99400.84;;;14.13;61.76
61805;BME280;47725;47.912;7.356;2023-04-30T02:49:10;99400.31;;;14.11;61.86
61805;BME280;47725;47.912;7.356;2023-04-30T02:53:10;99400.35;;;14.09;61.83
61805;BME280;47725;47.912;7.356;2023-04-30T02:57:10;99398.92;;;14.07;61.97
61805;BME280;47725;47.912;7.356;2023-04-30T03:01:10;99397.54;;;14.05;62.30
61805;BME280;47725;47.912;7.356;2023-04-30T03:05:10;99395.54;;;14.01;62.29
61805;BME280;47725;47.912;7.356;2023-04-30T03:09:10;99393.47;;;13.98;62.47
61805;BME280;47725;47.912;7.356;2023-04-30T03:13:10;99392.39;;;13.94;62.48
61805;BME280;47725;47.912;7.356;2023-04-30T03:17:10;99392.57;;;13.91;62.42
61805;BME280;47725;47.912;7.356;2023-04-30T03:21:10;99391.44;;;13.89;62.83
61805;BME280;47725;47.912;7.356;2023-04-30T03:25:10;99389.50;;;13.86;62.61
61805;BME280;47725;47.912;7.356;2023-04-30T03:29:10;99388.67;;;13.84;62.57
61805;BME280;47725;47.912;7.356;2023-04-30T03:33:10;99387.37;;;13.83;62.59
61805;BME280;47725;47.912;7.356;2023-04-30T03:37:10;99384.97;;;13.81;62.90
61805;BME280;47725;47.912;7.356;2023-04-30T03:41:10;99383.81;;;13.77;63.23
61805;BME280;47725;47.912;7.356;2023-04-30T03:45:10;99382.40;;;13.74;63.20
61805;BME280;47725;47.912;7.356;2023-04-30T03:49:10;99381.05;;;13.71;63.10
61805;BME280;47725;47.912;7.356;2023-04-30T03:53:10;99379.78;;;13.70;63.08
61805;BME280;47725;47.912;7.356;2023-04-30T03:57:10;99378.78;;;13.68;62.83
61805;BME280;47725;47.912;7.356;2023-04-30T04:01:10;99379.17;;;13.68;62.65
61805;BME280;47725;47.912;7.356;2023-04-30T04:05:10;99379.99;;;13.68;62.74
61805;BME280;47725;47.912;7.356;2023-04-30T04:09:10;99380.70;;;13.68;62.83
61805;BME280;47725;47.912;7.356;2023-04-30T04:13:10;99380.52;;;13.67;63.62
61805;BME280;47725;47.912;7.356;2023-04-30T04:17:10;99379.97;;;13.65;63.57
61805;BME280;47725;47.912;7.356;2023-04-30T04:21:10;99380.18;;;13.63;63.22
61805;BME280;47725;47.912;7.356;2023-04-30T04:25:10;99380.55;;;13.61;63.33
61805;BME280;47725;47.912;7.356;2023-04-30T04:29:10;99381.31;;;13.60;63.20
61805;BME280;47725;47.912;7.356;2023-04-30T04:33:10;99382.03;;;13.59;63.50
61805;BME280;47725;47.912;7.356;2023-04-30T04:37:10;99383.14;;;13.58;63.09
61805;BME280;47725;47.912;7.356;2023-04-30T04:41:10;99383.70;;;13.57;63.36
61805;BME280;47725;47.912;7.356;2023-04-30T04:45:10;99384.83;;;13.56;63.45
61805;BME280;47725;47.912;7.356;2023-04-30T04:49:10;99385.61;;;13.56;63.28
61805;BME280;47725;47.912;7.356;2023-04-30T04:53:10;99386.50;;;13.55;63.66
61805;BME280;47725;47.912;7.356;2023-04-30T04:57:10;99388.69;;;13.54;63.40
61805;BME280;47725;47.912;7.356;2023-04-30T05:01:10;99391.06;;;13.55;63.33
61805;BME280;47725;47.912;7.356;2023-04-30T05:05:10;99392.66;;;13.57;63.14
61805;BME280;47725;47.912;7.356;2023-04-30T05:09:10;99392.39;;;13.58;63.58
61805;BME280;47725;47.912;7.356;2023-04-30T05:13:10;99392.97;;;13.59;63.34
61805;BME280;47725;47.912;7.356;2023-04-30T05:17:10;99393.09;;;13.60;63.35
61805;BME280;47725;47.912;7.356;2023-04-30T05:21:10;99391.99;;;13.61;63.23
61805;BME280;47725;47.912;7.356;2023-04-30T05:25:10;99391.88;;;13.63;63.28
61805;BME280;47725;47.912;7.356;2023-04-30T05:29:10;99391.30;;;13.65;63.12
61805;BME280;47725;47.912;7.356;2023-04-30T05:33:10;99390.77;;;13.66;63.29
61805;BME280;47725;47.912;7.356;2023-04-30T05:37:10;99390.66;;;13.68;63.26
61805;BME280;47725;47.912;7.356;2023-04-30T05:41:11;99391.50;;;13.71;63.31
61805;BME280;47725;47.912;7.356;2023-04-30T05:45:11;99391.55;;;13.73;63.20
61805;BME280;47725;47.912;7.356;2023-04-30T05:49:10;99392.31;;;13.77;63.22
61805;BME280;47725;47.912;7.356;2023-04-30T05:53:10;99391.50;;;13.81;63.13
61805;BME280;47725;47.912;7.356;2023-04-30T05:57:10;99390.41;;;13.83;63.38
61805;BME280;47725;47.912;7.356;2023-04-30T06:01:10;99390.64;;;13.86;63.09
61805;BME280;47725;47.912;7.356;2023-04-30T06:05:10;99391.38;;;13.90;63.07
61805;BME280;47725;47.912;7.356;2023-04-30T06:09:10;99390.96;;;13.93;63.06
61805;BME280;47725;47.912;7.356;2023-04-30T06:13:10;99391.13;;;13.96;63.10
61805;BME280;47725;47.912;7.356;2023-04-30T06:17:11;99391.85;;;14.01;62.82
61805;BME280;47725;47.912;7.356;2023-04-30T06:21:10;99392.07;;;14.07;62.53
61805;BME280;47725;47.912;7.356;2023-04-30T06:25:10;99392.63;;;14.14;62.31
61805;BME280;47725;47.912;7.356;2023-04-30T06:29:10;99391.20;;;14.21;62.10
61805;BME280;47725;47.912;7.356;2023-04-30T06:33:10;99390.50;;;14.31;61.79
61805;BME280;47725;47.912;7.356;2023-04-30T06:37:10;99389.45;;;14.46;60.80
61805;BME280;47725;47.912;7.356;2023-04-30T06:41:10;99386.99;;;14.77;58.58
61805;BME280;47725;47.912;7.356;2023-04-30T06:45:10;99385.97;;;14.98;59.36
61805;BME280;47725;47.912;7.356;2023-04-30T06:49:10;99385.58;;;15.09;59.96
61805;BME280;47725;47.912;7.356;2023-04-30T06:53:13;99384.91;;;15.15;60.37
61805;BME280;47725;47.912;7.356;2023-04-30T06:57:10;99384.69;;;15.18;60.41
61805;BME280;47725;47.912;7.356;2023-04-30T07:01:10;99384.05;;;15.17;60.15
61805;BME280;47725;47.912;7.356;2023-04-30T07:05:10;99384.21;;;15.17;60.44
61805;BME280;47725;47.912;7.356;2023-04-30T07:09:10;99384.86;;;15.17;60.49
61805;BME280;47725;47.912;7.356;2023-04-30T07:13:10;99384.59;;;15.17;60.55
61805;BME280;47725;47.912;7.356;2023-04-30T07:17:10;99384.08;;;15.19;60.32
61805;BME280;47725;47.912;7.356;2023-04-30T07:21:10;99385.21;;;15.24;60.33
61805;BME280;47725;47.912;7.356;2023-04-30T07:25:13;99385.31;;;15.28;60.36
61805;BME280;47725;47.912;7.356;2023-04-30T07:29:10;99386.33;;;15.34;60.06
61805;BME280;47725;47.912;7.356;2023-04-30T07:33:11;99386.19;;;15.40;59.69
61805;BME280;47725;47.912;7.356;2023-04-30T07:37:10;99386.39;;;15.46;59.47
61805;BME280;47725;47.912;7.356;2023-04-30T07:41:10;99387.59;;;15.52;59.86
61805;BME280;47725;47.912;7.356;2023-04-30T07:45:10;99388.60;;;15.60;59.28
61805;BME280;47725;47.912;7.356;2023-04-30T07:49:10;99389.40;;;15.65;59.32
61805;BME280;47725;47.912;7.356;2023-04-30T07:53:10;99390.05;;;15.71;59.04
61805;BME280;47725;47.912;7.356;2023-04-30T07:57:10;99391.18;;;15.76;58.58
61805;BME280;47725;47.912;7.356;2023-04-30T08:01:10;99392.17;;;15.80;58.58
61805;BME280;47725;47.912;7.356;2023-04-30T08:05:10;99392.79;;;15.87;58.39
61805;BME280;47725;47.912;7.356;2023-04-30T08:09:10;99393.52;;;15.95;58.49
61805;BME280;47725;47.912;7.356;2023-04-30T08:13:10;99393.83;;;16.05;57.95
61805;BME280;47725;47.912;7.356;2023-04-30T08:17:10;99393.78;;;16.14;57.74
61805;BME280;47725;47.912;7.356;2023-04-30T08:21:10;99393.13;;;16.24;57.06
61805;BME280;47725;47.912;7.356;2023-04-30T08:25:10;99393.36;;;16.34;57.18
61805;BME280;47725;47.912;7.356;2023-04-30T08:29:10;99393.55;;;16.44;56.23
61805;BME280;47725;47.912;7.356;2023-04-30T08:33:10;99394.26;;;16.56;56.80
61805;BME280;47725;47.912;7.356;2023-04-30T08:37:10;99393.87;;;16.69;55.84
61805;BME280;47725;47.912;7.356;2023-04-30T08:41:10;99392.89;;;16.81;55.72
61805;BME280;47725;47.912;7.356;2023-04-30T08:45:10;99390.41;;;16.94;55.28
61805;BME280;47725;47.912;7.356;2023-04-30T08:49:10;99388.64;;;17.06;54.79
61805;BME280;47725;47.912;7.356;2023-04-30T08:53:10;99386.46;;;17.18;54.97
61805;BME280;47725;47.912;7.356;2023-04-30T08:57:10;99384.64;;;17.29;54.01
61805;BME280;47725;47.912;7.356;2023-04-30T09:01:10;99383.20;;;17.41;54.04
61805;BME280;47725;47.912;7.356;2023-04-30T09:05:10;99380.73;;;17.54;53.19
61805;BME280;47725;47.912;7.356;2023-04-30T09:09:11;99378.34;;;17.67;53.72
61805;BME280;47725;47.912;7.356;2023-04-30T09:13:10;99375.69;;;17.78;52.63
61805;BME280;47725;47.912;7.356;2023-04-30T09:17:10;99373.35;;;17.89;52.79
61805;BME280;47725;47.912;7.356;2023-04-30T09:21:10;99370.64;;;18.02;53.07
61805;BME280;47725;47.912;7.356;2023-04-30T09:25:10;99368.77;;;18.15;52.16
61805;BME280;47725;47.912;7.356;2023-04-30T09:29:10;99367.04;;;18.26;52.40
61805;BME280;47725;47.912;7.356;2023-04-30T09:33:10;99364.15;;;18.36;51.46
61805;BME280;47725;47.912;7.356;2023-04-30T09:37:10;99360.80;;;18.44;51.98
61805;BME280;47725;47.912;7.356;2023-04-30T09:41:22;99358.35;;;18.54;52.27
61805;BME280;47725;47.912;7.356;2023-04-30T09:45:10;99356.66;;;18.66;51.99
61805;BME280;47725;47.912;7.356;2023-04-30T09:49:10;99354.33;;;18.76;51.60
61805;BME280;47725;47.912;7.356;2023-04-30T09:53:10;99352.83;;;18.85;51.63
61805;BME280;47725;47.912;7.356;2023-04-30T09:57:10;99349.52;;;18.94;50.96
61805;BME280;47725;47.912;7.356;2023-04-30T10:01:10;99347.21;;;19.02;50.90
61805;BME280;47725;47.912;7.356;2023-04-30T10:06:06;99337.08;;;19.38;51.03
61805;BME280;47725;47.912;7.356;2023-04-30T10:10:07;99334.56;;;19.40;49.26
61805;BME280;47725;47.912;7.356;2023-04-30T10:14:07;99332.74;;;19.43;48.96
61805;BME280;47725;47.912;7.356;2023-04-30T10:18:13;99329.88;;;19.46;49.13
61805;BME280;47725;47.912;7.356;2023-04-30T10:22:04;99326.34;;;19.54;48.17
61805;BME280;47725;47.912;7.356;2023-04-30T10:26:04;99324.19;;;19.64;48.63
61805;BME280;47725;47.912;7.356;2023-04-30T10:30:05;99323.14;;;19.76;47.75
61805;BME280;47725;47.912;7.356;2023-04-30T10:38:13;99317.60;;;20.07;45.99
61805;BME280;47725;47.912;7.356;2023-04-30T10:42:10;99316.60;;;20.21;45.33
61805;BME280;47725;47.912;7.356;2023-04-30T10:46:04;99313.87;;;20.33;45.06
61805;BME280;47725;47.912;7.356;2023-04-30T10:50:07;99309.39;;;20.44;44.82
61805;BME280;47725;47.912;7.356;2023-04-30T10:54:04;99306.95;;;20.54;44.17
61805;BME280;47725;47.912;7.356;2023-04-30T10:58:13;99303.52;;;20.64;45.07
61805;BME280;47725;47.912;7.356;2023-04-30T11:02:04;99299.66;;;20.73;44.47
61805;BME280;47725;47.912;7.356;2023-04-30T11:06:09;99295.37;;;20.81;44.20
61805;BME280;47725;47.912;7.356;2023-04-30T11:10:06;99292.38;;;20.88;43.49
61805;BME280;47725;47.912;7.356;2023-04-30T11:14:04;99289.31;;;20.94;43.31
61805;BME280;47725;47.912;7.356;2023-04-30T11:18:05;99286.17;;;21.03;42.92
61805;BME280;47725;47.912;7.356;2023-04-30T11:26:04;99284.06;;;21.28;43.16
61805;BME280;47725;47.912;7.356;2023-04-30T11:30:08;99282.98;;;21.38;42.67
61805;BME280;47725;47.912;7.356;2023-04-30T11:34:04;99282.84;;;21.48;43.16
61805;BME280;47725;47.912;7.356;2023-04-30T11:38:04;99280.25;;;21.56;42.74
61805;BME280;47725;47.912;7.356;2023-04-30T11:42:05;99279.18;;;21.65;41.52
61805;BME280;47725;47.912;7.356;2023-04-30T11:46:15;99278.27;;;21.72;42.04
61805;BME280;47725;47.912;7.356;2023-04-30T11:50:06;99277.01;;;21.75;41.72
61805;BME280;47725;47.912;7.356;2023-04-30T11:54:06;99272.44;;;21.77;41.92
61805;BME280;47725;47.912;7.356;2023-04-30T11:58:08;99267.63;;;21.78;41.21
61805;BME280;47725;47.912;7.356;2023-04-30T12:02:05;99263.94;;;21.77;41.58
61805;BME280;47725;47.912;7.356;2023-04-30T12:06:04;99262.02;;;21.77;41.41
61805;BME280;47725;47.912;7.356;2023-04-30T12:10:05;99261.55;;;21.75;40.57
61805;BME280;47725;47.912;7.356;2023-04-30T12:18:11;99259.95;;;21.72;41.20
61805;BME280;47725;47.912;7.356;2023-04-30T12:22:04;99258.51;;;21.70;41.30
61805;BME280;47725;47.912;7.356;2023-04-30T12:26:04;99256.98;;;21.70;41.05
61805;BME280;47725;47.912;7.356;2023-04-30T12:30:05;99255.96;;;21.70;40.95
61805;BME280;47725;47.912;7.356;2023-04-30T12:34:05;99256.34;;;21.73;40.43
61805;BME280;47725;47.912;7.356;2023-04-30T12:38:05;99254.69;;;21.77;40.27
61805;BME280;47725;47.912;7.356;2023-04-30T12:42:04;99253.92;;;21.81;40.69
61805;BME280;47725;47.912;7.356;2023-04-30T12:46:04;99253.85;;;21.85;40.10
61805;BME280;47725;47.912;7.356;2023-04-30T12:50:13;99252.25;;;21.90;40.35
61805;BME280;47725;47.912;7.356;2023-04-30T12:54:04;99249.66;;;21.93;39.17
61805;BME280;47725;47.912;7.356;2023-04-30T12:58:11;99247.71;;;21.97;40.08
61805;BME280;47725;47.912;7.356;2023-04-30T13:02:05;99244.89;;;21.97;39.19
61805;BME280;47725;47.912;7.356;2023-04-30T13:06:04;99243.95;;;21.93;40.66
61805;BME280;47725;47.912;7.356;2023-04-30T13:10:05;99244.56;;;21.90;40.31
61805;BME280;47725;47.912;7.356;2023-04-30T13:14:04;99244.17;;;21.88;38.92
61805;BME280;47725;47.912;7.356;2023-04-30T13:18:04;99243.94;;;21.85;39.67
61805;BME280;47725;47.912;7.356;2023-04-30T13:22:04;99243.72;;;21.82;40.12
61805;BME280;47725;47.912;7.356;2023-04-30T13:26:04;99242.18;;;21.77;39.12
61805;BME280;47725;47.912;7.356;2023-04-30T13:30:05;99240.89;;;21.72;39.67
61805;BME280;47725;47.912;7.356;2023-04-30T13:34:04;99238.39;;;21.68;39.58
61805;BME280;47725;47.912;7.356;2023-04-30T13:38:04;99235.04;;;21.65;39.81
61805;BME280;47725;47.912;7.356;2023-04-30T13:42:04;99233.15;;;21.64;39.59
61805;BME280;47725;47.912;7.356;2023-04-30T13:46:04;99230.73;;;21.65;39.49
61805;BME280;47725;47.912;7.356;2023-04-30T13:50:06;99227.76;;;21.70;39.39
61805;BME280;47725;47.912;7.356;2023-04-30T13:54:04;99224.94;;;21.76;38.78
61805;BME280;47725;47.912;7.356;2023-04-30T13:58:04;99221.83;;;21.78;39.45
61805;BME280;47725;47.912;7.356;2023-04-30T14:02:05;99219.26;;;21.81;39.25
61805;BME280;47725;47.912;7.356;2023-04-30T14:06:04;99217.95;;;21.84;39.18
61805;BME280;47725;47.912;7.356;2023-04-30T14:10:05;99214.87;;;21.88;38.81
61805;BME280;47725;47.912;7.356;2023-04-30T14:14:04;99211.13;;;21.91;38.97
61805;BME280;47725;47.912;7.356;2023-04-30T14:18:04;99207.19;;;21.96;38.16
61805;BME280;47725;47.912;7.356;2023-04-30T14:22:04;99203.72;;;22.02;38.13
61805;BME280;47725;47.912;7.356;2023-04-30T14:26:04;99201.75;;;22.08;38.58
61805;BME280;47725;47.912;7.356;2023-04-30T14:30:05;99200.25;;;22.15;38.18
61805;BME280;47725;47.912;7.356;2023-04-30T14:34:04;99197.30;;;22.22;37.70
61805;BME280;47725;47.912;7.356;2023-04-30T14:38:04;99194.30;;;22.30;37.76
61805;BME280;47725;47.912;7.356;2023-04-30T14:42:04;99191.36;;;22.40;37.78
61805;BME280;47725;47.912;7.356;2023-04-30T14:46:04;99189.92;;;22.49;36.99
61805;BME280;47725;47.912;7.356;2023-04-30T14:50:05;99187.87;;;22.56;37.47
61805;BME280;47725;47.912;7.356;2023-04-30T14:54:04;99185.24;;;22.64;38.34
61805;BME280;47725;47.912;7.356;2023-04-30T14:58:04;99182.95;;;22.70;36.24
61805;BME280;47725;47.912;7.356;2023-04-30T15:02:05;99180.69;;;22.67;37.46
61805;BME280;47725;47.912;7.356;2023-04-30T15:06:04;99180.66;;;22.59;37.29
61805;BME280;47725;47.912;7.356;2023-04-30T15:10:05;99180.16;;;22.49;37.64
61805;BME280;47725;47.912;7.356;2023-04-30T15:14:04;99179.86;;;22.36;37.71
61805;BME280;47725;47.912;7.356;2023-04-30T15:18:04;99179.94;;;22.24;37.61
61805;BME280;47725;47.912;7.356;2023-04-30T15:22:07;99180.80;;;22.12;38.03
61805;BME280;47725;47.912;7.356;2023-04-30T15:26:05;99181.45;;;22.01;38.02
61805;BME280;47725;47.912;7.356;2023-04-30T15:30:05;99181.16;;;21.90;38.16
61805;BME280;47725;47.912;7.356;2023-04-30T15:34:04;99181.41;;;21.79;38.38
61805;BME280;47725;47.912;7.356;2023-04-30T15:38:04;99182.12;;;21.70;38.52
61805;BME280;47725;47.912;7.356;2023-04-30T15:42:04;99182.79;;;21.61;38.56
61805;BME280;47725;47.912;7.356;2023-04-30T15:46:04;99182.08;;;21.51;38.58
61805;BME280;47725;47.912;7.356;2023-04-30T15:50:05;99181.95;;;21.41;38.84
61805;BME280;47725;47.912;7.356;2023-04-30T15:54:04;99182.70;;;21.32;38.28
61805;BME280;47725;47.912;7.356;2023-04-30T15:58:04;99181.12;;;21.22;38.50
61805;BME280;47725;47.912;7.356;2023-04-30T16:02:04;99180.71;;;21.16;38.44
61805;BME280;47725;47.912;7.356;2023-04-30T16:06:04;99179.35;;;21.10;38.57
61805;BME280;47725;47.912;7.356;2023-04-30T16:10:04;99178.15;;;21.05;38.68
61805;BME280;47725;47.912;7.356;2023-04-30T16:14:04;99177.37;;;20.99;39.42
61805;BME280;47725;47.912;7.356;2023-04-30T16:18:04;99177.23;;;20.94;38.93
61805;BME280;47725;47.912;7.356;2023-04-30T16:22:04;99176.93;;;20.89;38.62
61805;BME280;47725;47.912;7.356;2023-04-30T16:26:04;99177.14;;;20.83;39.26
61805;BME280;47725;47.912;7.356;2023-04-30T16:30:05;99177.00;;;20.77;39.65
61805;BME280;47725;47.912;7.356;2023-04-30T16:34:04;99178.63;;;20.69;39.75
61805;BME280;47725;47.912;7.356;2023-04-30T16:38:04;99180.14;;;20.60;40.29
61805;BME280;47725;47.912;7.356;2023-04-30T16:42:04;99182.19;;;20.50;40.51
61805;BME280;47725;47.912;7.356;2023-04-30T16:46:04;99184.12;;;20.42;40.25
61805;BME280;47725;47.912;7.356;2023-04-30T16:50:04;99184.42;;;20.27;41.22
61805;BME280;47725;47.912;7.356;2023-04-30T16:54:04;99183.89;;;20.15;40.68
61805;BME280;47725;47.912;7.356;2023-04-30T16:58:04;99183.12;;;20.03;40.90
61805;BME280;47725;47.912;7.356;2023-04-30T17:02:04;99181.64;;;19.91;41.58
61805;BME280;47725;47.912;7.356;2023-04-30T17:06:04;99180.45;;;19.83;41.11
61805;BME280;47725;47.912;7.356;2023-04-30T17:10:04;99179.85;;;19.75;41.53
61805;BME280;47725;47.912;7.356;2023-04-30T17:14:04;99180.38;;;19.68;41.55
61805;BME280;47725;47.912;7.356;2023-04-30T17:18:04;99180.78;;;19.61;41.29
61805;BME280;47725;47.912;7.356;2023-04-30T17:22:04;99181.47;;;19.54;41.63
61805;BME280;47725;47.912;7.356;2023-04-30T17:26:04;99181.72;;;19.47;42.07
61805;BME280;47725;47.912;7.356;2023-04-30T17:30:05;99182.73;;;19.42;41.33
61805;BME280;47725;47.912;7.356;2023-04-30T17:34:04;99182.64;;;19.35;41.68
61805;BME280;47725;47.912;7.356;2023-04-30T17:38:04;99181.97;;;19.29;42.19
61805;BME280;47725;47.912;7.356;2023-04-30T17:42:04;99182.25;;;19.22;41.98
61805;BME280;47725;47.912;7.356;2023-04-30T17:46:04;99182.81;;;19.16;42.30
61805;BME280;47725;47.912;7.356;2023-04-30T17:50:05;99184.02;;;19.09;42.14
61805;BME280;47725;47.912;7.356;2023-04-30T17:54:04;99185.49;;;19.01;42.24
61805;BME280;47725;47.912;7.356;2023-04-30T17:58:04;99185.91;;;18.93;42.06
61805;BME280;47725;47.912;7.356;2023-04-30T18:02:04;99186.66;;;18.86;42.11
61805;BME280;47725;47.912;7.356;2023-04-30T18:06:04;99187.08;;;18.79;42.26
61805;BME280;47725;47.912;7.356;2023-04-30T18:10:04;99187.23;;;18.70;42.49
61805;BME280;47725;47.912;7.356;2023-04-30T18:14:04;99188.11;;;18.62;42.62
61805;BME280;47725;47.912;7.356;2023-04-30T18:18:04;99189.03;;;18.54;42.57
61805;BME280;47725;47.912;7.356;2023-04-30T18:22:04;99189.97;;;18.46;43.07
61805;BME280;47725;47.912;7.356;2023-04-30T18:26:06;99190.80;;;18.39;42.91
61805;BME280;47725;47.912;7.356;2023-04-30T18:30:04;99191.19;;;18.33;42.62
61805;BME280;47725;47.912;7.356;2023-04-30T18:34:04;99191.46;;;18.26;43.30
61805;BME280;47725;47.912;7.356;2023-04-30T18:38:04;99191.78;;;18.19;43.29
61805;BME280;47725;47.912;7.356;2023-04-30T18:42:04;99192.99;;;18.11;43.28
61805;BME280;47725;47.912;7.356;2023-04-30T18:46:04;99193.61;;;18.05;43.37
61805;BME280;47725;47.912;7.356;2023-04-30T18:50:04;99194.87;;;17.99;43.18
61805;BME280;47725;47.912;7.356;2023-04-30T18:54:04;99195.67;;;17.94;43.27
61805;BME280;47725;47.912;7.356;2023-04-30T18:58:04;99196.52;;;17.88;43.60
61805;BME280;47725;47.912;7.356;2023-04-30T19:02:04;99197.88;;;17.83;43.53
61805;BME280;47725;47.912;7.356;2023-04-30T19:06:04;99199.17;;;17.78;43.69
61805;BME280;47725;47.912;7.356;2023-04-30T19:10:04;99200.37;;;17.74;43.40
61805;BME280;47725;47.912;7.356;2023-04-30T19:14:04;99201.76;;;17.69;43.59
61805;BME280;47725;47.912;7.356;2023-04-30T19:18:04;99203.83;;;17.67;43.41
61805;BME280;47725;47.912;7.356;2023-04-30T19:22:04;99205.13;;;17.62;43.94
61805;BME280;47725;47.912;7.356;2023-04-30T19:26:04;99207.19;;;17.59;43.80
61805;BME280;47725;47.912;7.356;2023-04-30T19:30:04;99209.59;;;17.56;43.95
61805;BME280;47725;47.912;7.356;2023-04-30T19:34:04;99210.83;;;17.54;43.59
61805;BME280;47725;47.912;7.356;2023-04-30T19:38:04;99213.34;;;17.51;44.12
61805;BME280;47725;47.912;7.356;2023-04-30T19:42:04;99215.88;;;17.49;44.01
61805;BME280;47725;47.912;7.356;2023-04-30T19:46:04;99218.00;;;17.47;43.88
61805;BME280;47725;47.912;7.356;2023-04-30T19:50:04;99219.61;;;17.44;44.30
61805;BME280;47725;47.912;7.356;2023-04-30T19:54:04;99221.00;;;17.41;44.61
61805;BME280;47725;47.912;7.356;2023-04-30T19:58:04;99220.92;;;17.39;44.21
61805;BME280;47725;47.912;7.356;2023-04-30T20:02:04;99220.48;;;17.37;44.17
61805;BME280;47725;47.912;7.356;2023-04-30T20:06:04;99220.68;;;17.34;44.09
61805;BME280;47725;47.912;7.356;2023-04-30T20:10:04;99219.84;;;17.31;44.35
61805;BME280;47725;47.912;7.356;2023-04-30T20:14:04;99220.79;;;17.28;44.74
61805;BME280;47725;47.912;7.356;2023-04-30T20:18:04;99221.52;;;17.24;44.87
61805;BME280;47725;47.912;7.356;2023-04-30T20:22:04;99221.71;;;17.20;44.93
61805;BME280;47725;47.912;7.356;2023-04-30T20:26:04;99221.28;;;17.18;44.92
61805;BME280;47725;47.912;7.356;2023-04-30T20:30:04;99220.84;;;17.14;45.21
61805;BME280;47725;47.912;7.356;2023-04-30T20:34:04;99220.75;;;17.11;45.31
61805;BME280;47725;47.912;7.356;2023-04-30T20:38:04;99221.22;;;17.09;45.07
61805;BME280;47725;47.912;7.356;2023-04-30T20:42:04;99220.56;;;17.06;45.44
61805;BME280;47725;47.912;7.356;2023-04-30T20:46:04;99219.47;;;17.03;45.48
61805;BME280;47725;47.912;7.356;2023-04-30T20:50:04;99219.35;;;17.01;45.58
61805;BME280;47725;47.912;7.356;2023-04-30T20:54:04;99218.59;;;16.98;45.57
61805;BME280;47725;47.912;7.356;2023-04-30T20:58:04;99217.96;;;16.96;45.67
61805;BME280;47725;47.912;7.356;2023-04-30T21:02:04;99217.53;;;16.93;45.92
61805;BME280;47725;47.912;7.356;2023-04-30T21:06:04;99216.69;;;16.91;45.77
61805;BME280;47725;47.912;7.356;2023-04-30T21:10:04;99214.82;;;16.89;46.10
61805;BME280;47725;47.912;7.356;2023-04-30T21:14:04;99213.95;;;16.88;45.97
61805;BME280;47725;47.912;7.356;2023-04-30T21:18:04;99213.56;;;16.87;45.90
61805;BME280;47725;47.912;7.356;2023-04-30T21:22:04;99212.93;;;16.86;46.12
61805;BME280;47725;47.912;7.356;2023-04-30T21:26:04;99212.09;;;16.83;46.58
61805;BME280;47725;47.912;7.356;2023-04-30T21:30:04;99210.60;;;16.81;45.96
61805;BME280;47725;47.912;7.356;2023-04-30T21:34:04;99208.93;;;16.80;46.46
61805;BME280;47725;47.912;7.356;2023-04-30T21:38:04;99207.12;;;16.78;46.27